sensor_id;sensor_type;location;lat;lon;timestamp;pressure;altitude;pressure_sealevel;temperature;humidity
29383;BME280;16365;51.598;7.668;2023-02-18T00:01:42;101493.63;;;16.42;52.84
29383;BME280;16365;51.598;7.668;2023-02-18T00:04:10;101499.56;;;16.41;53.34
29383;BME280;16365;51.598;7.668;2023-02-18T00:06:42;101480.81;;;16.41;53.07
29383;BME280;16365;51.598;7.668;2023-02-18T00:09:10;101486.41;;;16.41;53.59
29383;BME280;16365;51.598;7.668;2023-02-18T00:11:37;101481.63;;;16.42;53.16
29383;BME280;16365;51.598;7.668;2023-02-18T00:14:07;101475.66;;;16.43;53.79
29383;BME280;16365;51.598;7.668;2023-02-18T00:16:35;101469.25;;;16.43;53.30
29383;BME280;16365;51.598;7.668;2023-02-18T00:19:04;101471.22;;;16.42;53.53
29383;BME280;16365;51.598;7.668;2023-02-18T00:21:36;101475.66;;;16.43;53.58
29383;BME280;16365;51.598;7.668;2023-02-18T00:24:07;101476.81;;;16.42;54.27
29383;BME280;16365;51.598;7.668;2023-02-18T00:26:37;101475.31;;;16.45;53.73
29383;BME280;16365;51.598;7.668;2023-02-18T00:29:03;101474.16;;;16.46;53.50
29383;BME280;16365;51.598;7.668;2023-02-18T00:31:35;101476.50;;;16.44;nan
29383;BME280;16365;51.598;7.668;2023-02-18T00:34:04;101477.31;;;16.44;54.03
29383;BME280;16365;51.598;7.668;2023-02-18T00:36:31;101467.75;;;16.45;54.07
29383;BME280;16365;51.598;7.668;2023-02-18T00:38:59;101460.53;;;16.44;54.08
29383;BME280;16365;51.598;7.668;2023-02-18T00:41:29;101455.75;;;16.45;53.98
29383;BME280;16365;51.598;7.668;2023-02-18T00:44:04;101460.16;;;16.46;53.90
29383;BME280;16365;51.598;7.668;2023-02-18T00:46:34;101450.94;;;16.45;54.55
29383;BME280;16365;51.598;7.668;2023-02-18T00:49:02;101445.00;;;16.47;53.92
29383;BME280;16365;51.598;7.668;2023-02-18T00:51:29;101442.69;;;16.49;53.74
29383;BME280;16365;51.598;7.668;2023-02-18T00:53:59;101436.22;;;16.49;54.31
29383;BME280;16365;51.598;7.668;2023-02-18T00:56:26;101439.88;;;16.49;53.92
29383;BME280;16365;51.598;7.668;2023-02-18T00:58:55;101443.13;;;16.51;54.37
29383;BME280;16365;51.598;7.668;2023-02-18T01:01:22;101430.75;;;16.52;54.05
29383;BME280;16365;51.598;7.668;2023-02-18T01:03:49;101436.34;;;16.52;54.20
29383;BME280;16365;51.598;7.668;2023-02-18T01:06:19;101436.84;;;16.54;54.04
29383;BME280;16365;51.598;7.668;2023-02-18T01:08:47;101438.47;;;16.55;53.91
29383;BME280;16365;51.598;7.668;2023-02-18T01:11:16;101431.69;;;16.56;54.00
29383;BME280;16365;51.598;7.668;2023-02-18T01:13:42;101424.09;;;16.57;53.98
29383;BME280;16365;51.598;7.668;2023-02-18T01:16:09;101431.34;;;16.58;54.23
29383;BME280;16365;51.598;7.668;2023-02-18T01:18:36;101430.19;;;16.59;54.31
29383;BME280;16365;51.598;7.668;2023-02-18T01:21:05;101439.03;;;16.61;54.35
29383;BME280;16365;51.598;7.668;2023-02-18T01:23:38;101434.25;;;16.61;54.14
29383;BME280;16365;51.598;7.668;2023-02-18T01:26:06;101443.47;;;16.62;54.04
29383;BME280;16365;51.598;7.668;2023-02-18T01:28:34;101442.28;;;16.63;53.84
29383;BME280;16365;51.598;7.668;2023-02-18T01:31:06;101436.25;;;16.61;54.68
29383;BME280;16365;51.598;7.668;2023-02-18T01:33:36;101425.84;;;16.61;54.48
29383;BME280;16365;51.598;7.668;2023-02-18T01:36:09;101429.84;;;16.60;54.71
29383;BME280;16365;51.598;7.668;2023-02-18T01:38:36;101435.06;;;16.62;53.96
29383;BME280;16365;51.598;7.668;2023-02-18T01:41:03;101428.66;;;16.61;53.95
29383;BME280;16365;51.598;7.668;2023-02-18T01:43:30;101419.09;;;16.62;54.29
29383;BME280;16365;51.598;7.668;2023-02-18T01:46:15;101417.81;;;16.60;54.77
29383;BME280;16365;51.598;7.668;2023-02-18T01:51:25;101415.84;;;16.60;54.84
29383;BME280;16365;51.598;7.668;2023-02-18T01:53:55;101409.88;;;16.62;54.17
29383;BME280;16365;51.598;7.668;2023-02-18T01:56:31;101412.22;;;16.60;54.68
29383;BME280;16365;51.598;7.668;2023-02-18T01:59:06;101400.66;;;16.61;54.55
29383;BME280;16365;51.598;7.668;2023-02-18T02:01:36;101402.28;;;16.62;54.13
29383;BME280;16365;51.598;7.668;2023-02-18T02:04:04;101403.09;;;16.63;53.90
29383;BME280;16365;51.598;7.668;2023-02-18T02:06:31;101400.31;;;16.63;54.46
29383;BME280;16365;51.598;7.668;2023-02-18T02:09:01;101401.47;;;16.62;54.62
29383;BME280;16365;51.598;7.668;2023-02-18T02:14:30;101401.47;;;16.62;55.02
29383;BME280;16365;51.598;7.668;2023-02-18T02:17:27;101408.00;;;16.66;54.49
29383;BME280;16365;51.598;7.668;2023-02-18T02:22:59;101397.97;;;16.65;54.89
29383;BME280;16365;51.598;7.668;2023-02-18T02:25:38;101390.50;;;16.69;54.10
29383;BME280;16365;51.598;7.668;2023-02-18T02:28:34;101381.19;;;16.65;54.85
29383;BME280;16365;51.598;7.668;2023-02-18T02:31:36;101389.56;;;16.65;54.97
29383;BME280;16365;51.598;7.668;2023-02-18T02:40:00;101373.97;;;16.64;54.89
29383;BME280;16365;51.598;7.668;2023-02-18T02:42:34;101367.19;;;16.65;54.08
29383;BME280;16365;51.598;7.668;2023-02-18T02:45:20;101365.88;;;16.62;54.50
29383;BME280;16365;51.598;7.668;2023-02-18T02:53:34;101354.34;;;16.64;54.60
29383;BME280;16365;51.598;7.668;2023-02-18T02:56:02;101350.38;;;16.65;53.99
29383;BME280;16365;51.598;7.668;2023-02-18T02:58:29;101350.38;;;16.65;54.10
29383;BME280;16365;51.598;7.668;2023-02-18T03:03:34;101353.06;;;16.61;54.64
29383;BME280;16365;51.598;7.668;2023-02-18T03:06:20;101342.69;;;16.62;55.09
29383;BME280;16365;51.598;7.668;2023-02-18T03:11:37;101336.03;;;16.66;54.46
29383;BME280;16365;51.598;7.668;2023-02-18T03:14:19;101331.59;;;16.65;54.87
29383;BME280;16365;51.598;7.668;2023-02-18T03:16:52;101319.22;;;16.66;54.32
29383;BME280;16365;51.598;7.668;2023-02-18T03:24:40;101296.47;;;16.68;54.58
29383;BME280;16365;51.598;7.668;2023-02-18T03:27:15;101292.84;;;16.67;54.89
29383;BME280;16365;51.598;7.668;2023-02-18T03:29:45;101294.50;;;16.68;54.40
29383;BME280;16365;51.598;7.668;2023-02-18T03:32:17;101285.72;;;16.70;54.24
29383;BME280;16365;51.598;7.668;2023-02-18T03:34:49;101284.09;;;16.69;54.59
29383;BME280;16365;51.598;7.668;2023-02-18T03:37:16;101277.34;;;16.70;54.31
29383;BME280;16365;51.598;7.668;2023-02-18T03:39:47;101283.31;;;16.68;54.08
29383;BME280;16365;51.598;7.668;2023-02-18T03:42:16;101278.50;;;16.69;54.08
29383;BME280;16365;51.598;7.668;2023-02-18T03:44:44;101276.84;;;16.68;54.03
29383;BME280;16365;51.598;7.668;2023-02-18T03:47:11;101278.84;;;16.67;54.08
29383;BME280;16365;51.598;7.668;2023-02-18T03:49:37;101278.84;;;16.67;54.10
29383;BME280;16365;51.598;7.668;2023-02-18T03:52:04;101265.66;;;16.68;54.47
29383;BME280;16365;51.598;7.668;2023-02-18T03:54:30;101274.06;;;16.68;54.29
29383;BME280;16365;51.598;7.668;2023-02-18T03:56:57;101264.84;;;16.67;54.31
29383;BME280;16365;51.598;7.668;2023-02-18T03:59:23;101265.66;;;16.68;54.37
29383;BME280;16365;51.598;7.668;2023-02-18T04:01:50;101259.25;;;16.67;54.26
29383;BME280;16365;51.598;7.668;2023-02-18T04:04:16;101245.63;;;16.66;54.40
29383;BME280;16365;51.598;7.668;2023-02-18T04:06:43;101245.63;;;16.66;54.18
29383;BME280;16365;51.598;7.668;2023-02-18T04:09:10;101251.59;;;16.64;54.17
29383;BME280;16365;51.598;7.668;2023-02-18T04:11:37;101252.28;;;16.61;54.20
29383;BME280;16365;51.598;7.668;2023-02-18T04:14:04;101250.28;;;16.62;54.20
29383;BME280;16365;51.598;7.668;2023-02-18T04:16:31;101247.03;;;16.60;54.62
29383;BME280;16365;51.598;7.668;2023-02-18T04:18:58;101234.22;;;16.59;54.33
29383;BME280;16365;51.598;7.668;2023-02-18T04:21:24;101228.63;;;16.59;54.25
29383;BME280;16365;51.598;7.668;2023-02-18T04:23:51;101230.94;;;16.57;54.49
29383;BME280;16365;51.598;7.668;2023-02-18T04:26:17;101227.34;;;16.56;54.48
29383;BME280;16365;51.598;7.668;2023-02-18T04:28:44;101225.72;;;16.55;54.27
29383;BME280;16365;51.598;7.668;2023-02-18T04:31:10;101221.28;;;16.54;54.63
29383;BME280;16365;51.598;7.668;2023-02-18T04:33:37;101222.09;;;16.55;54.79
29383;BME280;16365;51.598;7.668;2023-02-18T04:36:03;101222.91;;;16.55;54.37
29383;BME280;16365;51.598;7.668;2023-02-18T04:38:30;101203.31;;;16.55;54.59
29383;BME280;16365;51.598;7.668;2023-02-18T04:40:56;101210.09;;;16.54;54.51
29383;BME280;16365;51.598;7.668;2023-02-18T04:43:23;101196.91;;;16.55;54.81
29383;BME280;16365;51.598;7.668;2023-02-18T04:45:49;101200.53;;;16.55;54.67
29383;BME280;16365;51.598;7.668;2023-02-18T04:48:16;101192.50;;;16.54;54.59
29383;BME280;16365;51.598;7.668;2023-02-18T04:50:43;101182.91;;;16.55;54.75
29383;BME280;16365;51.598;7.668;2023-02-18T04:53:10;101188.50;;;16.55;54.50
29383;BME280;16365;51.598;7.668;2023-02-18T04:55:37;101186.53;;;16.55;54.48
29383;BME280;16365;51.598;7.668;2023-02-18T04:58:03;101177.31;;;16.55;54.84
29383;BME280;16365;51.598;7.668;2023-02-18T05:00:30;101175.69;;;16.54;54.53
29383;BME280;16365;51.598;7.668;2023-02-18T05:02:56;101169.25;;;16.53;54.74
29383;BME280;16365;51.598;7.668;2023-02-18T05:05:22;101181.28;;;16.54;54.86
29383;BME280;16365;51.598;7.668;2023-02-18T05:07:49;101168.91;;;16.55;54.90
29383;BME280;16365;51.598;7.668;2023-02-18T05:10:16;101171.25;;;16.53;54.92
29383;BME280;16365;51.598;7.668;2023-02-18T05:12:42;101164.84;;;16.52;54.78
29383;BME280;16365;51.598;7.668;2023-02-18T05:15:09;101167.63;;;16.52;54.75
29383;BME280;16365;51.598;7.668;2023-02-18T05:17:35;101170.00;;;16.50;55.00
29383;BME280;16365;51.598;7.668;2023-02-18T05:20:04;101172.31;;;16.48;54.85
29383;BME280;16365;51.598;7.668;2023-02-18T05:22:30;101164.72;;;16.49;54.61
29383;BME280;16365;51.598;7.668;2023-02-18T05:24:57;101163.91;;;16.48;54.51
29383;BME280;16365;51.598;7.668;2023-02-18T05:27:23;101157.88;;;16.46;54.91
29383;BME280;16365;51.598;7.668;2023-02-18T05:29:49;101146.25;;;16.44;54.99
29383;BME280;16365;51.598;7.668;2023-02-18T05:32:16;101148.56;;;16.42;54.91
29383;BME280;16365;51.598;7.668;2023-02-18T05:34:43;101141.72;;;16.39;54.91
29383;BME280;16365;51.598;7.668;2023-02-18T05:37:09;101133.31;;;16.39;55.24
29383;BME280;16365;51.598;7.668;2023-02-18T05:39:36;101122.47;;;16.38;55.06
29383;BME280;16365;51.598;7.668;2023-02-18T05:42:02;101117.22;;;16.36;55.27
29383;BME280;16365;51.598;7.668;2023-02-18T05:44:29;101113.97;;;16.34;55.25
29383;BME280;16365;51.598;7.668;2023-02-18T05:46:56;101107.53;;;16.34;55.30
29383;BME280;16365;51.598;7.668;2023-02-18T05:49:27;101108.28;;;16.31;55.35
29383;BME280;16365;51.598;7.668;2023-02-18T05:51:54;101101.50;;;16.32;55.10
29383;BME280;16365;51.598;7.668;2023-02-18T05:54:20;101095.47;;;16.30;55.02
29383;BME280;16365;51.598;7.668;2023-02-18T05:56:47;101091.03;;;16.29;55.45
29383;BME280;16365;51.598;7.668;2023-02-18T05:59:13;101089.41;;;16.28;55.02
29383;BME280;16365;51.598;7.668;2023-02-18T06:01:40;101092.56;;;16.26;55.03
29383;BME280;16365;51.598;7.668;2023-02-18T06:04:07;101094.19;;;16.27;55.07
29383;BME280;16365;51.598;7.668;2023-02-18T06:06:34;101082.56;;;16.25;55.27
29383;BME280;16365;51.598;7.668;2023-02-18T06:09:00;101083.69;;;16.24;55.47
29383;BME280;16365;51.598;7.668;2023-02-18T06:11:27;101077.28;;;16.24;55.26
29383;BME280;16365;51.598;7.668;2023-02-18T06:13:53;101076.47;;;16.23;55.43
29383;BME280;16365;51.598;7.668;2023-02-18T06:16:19;101066.47;;;16.22;55.40
29383;BME280;16365;51.598;7.668;2023-02-18T06:18:46;101078.84;;;16.21;55.21
29383;BME280;16365;51.598;7.668;2023-02-18T06:21:12;101079.66;;;16.22;55.18
29383;BME280;16365;51.598;7.668;2023-02-18T06:23:39;101075.22;;;16.21;55.40
29383;BME280;16365;51.598;7.668;2023-02-18T06:26:05;101065.19;;;16.19;55.48
29383;BME280;16365;51.598;7.668;2023-02-18T06:28:33;101058.78;;;16.19;55.50
29383;BME280;16365;51.598;7.668;2023-02-18T06:30:59;101066.34;;;16.18;55.28
29383;BME280;16365;51.598;7.668;2023-02-18T06:33:26;101060.31;;;16.16;55.18
29383;BME280;16365;51.598;7.668;2023-02-18T06:38:21;101073.50;;;16.16;55.39
29383;BME280;16365;51.598;7.668;2023-02-18T06:40:47;101067.44;;;16.14;55.68
29383;BME280;16365;51.598;7.668;2023-02-18T06:43:14;101081.41;;;16.14;55.41
29383;BME280;16365;51.598;7.668;2023-02-18T06:45:40;101077.00;;;16.13;55.59
29383;BME280;16365;51.598;7.668;2023-02-18T06:48:07;101070.59;;;16.12;55.64
29383;BME280;16365;51.598;7.668;2023-02-18T06:50:33;101078.53;;;16.10;55.63
29383;BME280;16365;51.598;7.668;2023-02-18T06:53:00;101082.50;;;16.09;55.74
29383;BME280;16365;51.598;7.668;2023-02-18T06:55:26;101075.28;;;16.08;55.48
29383;BME280;16365;51.598;7.668;2023-02-18T06:57:53;101068.06;;;16.07;55.29
29383;BME280;16365;51.598;7.668;2023-02-18T07:00:19;101065.63;;;16.06;55.42
29383;BME280;16365;51.598;7.668;2023-02-18T07:02:46;101070.41;;;16.05;55.84
29383;BME280;16365;51.598;7.668;2023-02-18T07:05:12;101063.16;;;16.04;55.79
29383;BME280;16365;51.598;7.668;2023-02-18T07:07:39;101065.16;;;16.04;55.64
29383;BME280;16365;51.598;7.668;2023-02-18T07:10:06;101063.53;;;16.03;55.71
29383;BME280;16365;51.598;7.668;2023-02-18T07:12:33;101044.31;;;16.01;55.51
29383;BME280;16365;51.598;7.668;2023-02-18T07:14:59;101055.50;;;16.01;55.72
29383;BME280;16365;51.598;7.668;2023-02-18T07:17:26;101065.03;;;16.00;55.73
29383;BME280;16365;51.598;7.668;2023-02-18T07:19:52;101055.84;;;16.00;55.75
29383;BME280;16365;51.598;7.668;2023-02-18T07:22:21;101061.00;;;15.98;55.91
29383;BME280;16365;51.598;7.668;2023-02-18T07:24:51;101051.78;;;15.97;56.36
29383;BME280;16365;51.598;7.668;2023-02-18T07:27:19;101052.59;;;15.98;56.05
29383;BME280;16365;51.598;7.668;2023-02-18T07:29:47;101063.78;;;15.98;55.94
29383;BME280;16365;51.598;7.668;2023-02-18T07:32:15;101070.56;;;15.97;55.88
29383;BME280;16365;51.598;7.668;2023-02-18T07:34:42;101067.75;;;15.97;55.78
29383;BME280;16365;51.598;7.668;2023-02-18T07:37:08;101062.50;;;15.95;55.86
29383;BME280;16365;51.598;7.668;2023-02-18T07:39:39;101059.25;;;15.93;56.40
29383;BME280;16365;51.598;7.668;2023-02-18T07:42:05;101060.88;;;15.94;55.74
29383;BME280;16365;51.598;7.668;2023-02-18T07:44:32;101070.09;;;15.94;55.89
29383;BME280;16365;51.598;7.668;2023-02-18T07:46:58;101072.06;;;15.94;55.83
29383;BME280;16365;51.598;7.668;2023-02-18T07:49:27;101084.88;;;15.95;56.12
29383;BME280;16365;51.598;7.668;2023-02-18T07:51:53;101076.97;;;15.97;55.47
29383;BME280;16365;51.598;7.668;2023-02-18T07:54:20;101072.06;;;15.94;55.77
29383;BME280;16365;51.598;7.668;2023-02-18T07:56:46;101068.47;;;15.93;55.86
29383;BME280;16365;51.598;7.668;2023-02-18T07:59:13;101074.41;;;15.92;55.70
29383;BME280;16365;51.598;7.668;2023-02-18T08:01:40;101080.00;;;15.92;55.70
29383;BME280;16365;51.598;7.668;2023-02-18T08:04:09;101074.41;;;15.92;55.99
29383;BME280;16365;51.598;7.668;2023-02-18T08:06:41;101082.25;;;15.86;55.93
29383;BME280;16365;51.598;7.668;2023-02-18T08:09:08;101075.47;;;15.87;55.71
29383;BME280;16365;51.598;7.668;2023-02-18T08:11:35;101073.50;;;15.88;55.82
29383;BME280;16365;51.598;7.668;2023-02-18T08:14:01;101097.84;;;15.87;55.90
29383;BME280;16365;51.598;7.668;2023-02-18T08:16:28;101110.22;;;15.86;55.89
29383;BME280;16365;51.598;7.668;2023-02-18T08:18:54;101102.16;;;15.85;55.78
29383;BME280;16365;51.598;7.668;2023-02-18T08:21:22;101102.97;;;15.85;55.73
29383;BME280;16365;51.598;7.668;2023-02-18T08:23:50;101091.78;;;15.85;55.65
29383;BME280;16365;51.598;7.668;2023-02-18T08:26:17;101101.00;;;15.86;56.10
29383;BME280;16365;51.598;7.668;2023-02-18T08:28:45;101087.03;;;15.86;56.08
29383;BME280;16365;51.598;7.668;2023-02-18T08:31:17;101095.06;;;15.87;55.99
29383;BME280;16365;51.598;7.668;2023-02-18T08:33:44;101092.72;;;15.89;55.82
29383;BME280;16365;51.598;7.668;2023-02-18T08:36:11;101097.59;;;15.92;55.67
29383;BME280;16365;51.598;7.668;2023-02-18T08:38:37;101104.13;;;15.97;55.81
29383;BME280;16365;51.598;7.668;2023-02-18T08:41:05;101100.16;;;15.98;55.85
29383;BME280;16365;51.598;7.668;2023-02-18T08:43:34;101092.13;;;15.96;55.67
29383;BME280;16365;51.598;7.668;2023-02-18T08:46:02;101083.09;;;16.03;55.46
29383;BME280;16365;51.598;7.668;2023-02-18T08:48:29;101087.19;;;16.05;55.84
29383;BME280;16365;51.598;7.668;2023-02-18T08:50:55;101078.06;;;16.08;55.52
29383;BME280;16365;51.598;7.668;2023-02-18T08:53:22;101082.97;;;16.11;55.52
29383;BME280;16365;51.598;7.668;2023-02-18T08:55:49;101088.19;;;16.13;55.59
29383;BME280;16365;51.598;7.668;2023-02-18T08:58:15;101075.81;;;16.14;55.09
29383;BME280;16365;51.598;7.668;2023-02-18T09:00:43;101084.69;;;16.16;55.30
29383;BME280;16365;51.598;7.668;2023-02-18T09:03:14;101075.81;;;16.14;54.75
29383;BME280;16365;51.598;7.668;2023-02-18T09:05:41;101067.44;;;16.14;54.64
29383;BME280;16365;51.598;7.668;2023-02-18T09:08:07;101073.41;;;16.12;54.86
29383;BME280;16365;51.598;7.668;2023-02-18T09:10:34;101068.59;;;16.13;54.94
29383;BME280;16365;51.598;7.668;2023-02-18T09:13:00;101072.22;;;16.13;54.86
29383;BME280;16365;51.598;7.668;2023-02-18T09:15:27;101070.69;;;16.16;54.83
29383;BME280;16365;51.598;7.668;2023-02-18T09:17:53;101076.38;;;16.19;54.65
29383;BME280;16365;51.598;7.668;2023-02-18T09:20:20;101073.25;;;16.21;54.45
29383;BME280;16365;51.598;7.668;2023-02-18T09:22:46;101067.75;;;16.25;54.66
29383;BME280;16365;51.598;7.668;2023-02-18T09:25:13;101076.59;;;16.27;54.54
29383;BME280;16365;51.598;7.668;2023-02-18T09:27:39;101077.41;;;16.27;54.15
29383;BME280;16365;51.598;7.668;2023-02-18T09:30:06;101078.56;;;16.26;53.69
29383;BME280;16365;51.598;7.668;2023-02-18T09:32:33;101087.34;;;16.25;53.63
29383;BME280;16365;51.598;7.668;2023-02-18T09:35:02;101085.59;;;16.20;53.56
29383;BME280;16365;51.598;7.668;2023-02-18T09:37:28;101081.91;;;16.16;53.30
29383;BME280;16365;51.598;7.668;2023-02-18T09:39:55;101082.50;;;16.09;53.36
29383;BME280;16365;51.598;7.668;2023-02-18T09:42:28;101093.00;;;16.00;53.59
29383;BME280;16365;51.598;7.668;2023-02-18T09:44:59;101088.84;;;15.94;53.50
29383;BME280;16365;51.598;7.668;2023-02-18T09:47:40;101082.34;;;15.90;53.60
29383;BME280;16365;51.598;7.668;2023-02-18T09:50:21;101071.88;;;15.87;53.84
29383;BME280;16365;51.598;7.668;2023-02-18T09:52:48;101071.50;;;15.88;53.62
29383;BME280;16365;51.598;7.668;2023-02-18T09:55:35;101092.97;;;15.84;53.76
29383;BME280;16365;51.598;7.668;2023-02-18T09:58:05;101077.91;;;15.89;53.69
29383;BME280;16365;51.598;7.668;2023-02-18T10:00:39;101097.84;;;15.87;53.44
29383;BME280;16365;51.598;7.668;2023-02-18T10:03:15;101077.09;;;15.88;53.50
29383;BME280;16365;51.598;7.668;2023-02-18T10:05:55;101082.69;;;15.88;53.17
29383;BME280;16365;51.598;7.668;2023-02-18T10:08:33;101084.31;;;15.89;53.44
29383;BME280;16365;51.598;7.668;2023-02-18T10:11:01;101093.19;;;15.91;53.03
29383;BME280;16365;51.598;7.668;2023-02-18T10:13:31;101089.91;;;15.89;53.38
29383;BME280;16365;51.598;7.668;2023-02-18T10:15:58;101094.31;;;15.90;53.42
29383;BME280;16365;51.598;7.668;2023-02-18T10:18:34;101081.06;;;15.87;53.58
29383;BME280;16365;51.598;7.668;2023-02-18T10:21:10;101090.28;;;15.88;53.40
29383;BME280;16365;51.598;7.668;2023-02-18T10:23:54;101096.22;;;15.86;53.11
29383;BME280;16365;51.598;7.668;2023-02-18T10:26:24;101086.19;;;15.85;53.34
29383;BME280;16365;51.598;7.668;2023-02-18T10:28:50;101096.13;;;15.83;53.06
29383;BME280;16365;51.598;7.668;2023-02-18T10:31:24;101097.53;;;15.77;53.69
29383;BME280;16365;51.598;7.668;2023-02-18T10:34:19;101094.63;;;15.73;53.78
29383;BME280;16365;51.598;7.668;2023-02-18T10:37:02;101091.84;;;15.73;53.84
29383;BME280;16365;51.598;7.668;2023-02-18T10:39:47;101089.03;;;15.73;53.99
29383;BME280;16365;51.598;7.668;2023-02-18T10:50:44;101108.59;;;15.73;53.71
29383;BME280;16365;51.598;7.668;2023-02-18T10:53:32;101112.47;;;15.68;54.10
29383;BME280;16365;51.598;7.668;2023-02-18T10:55:59;101108.97;;;15.72;53.68
29383;BME280;16365;51.598;7.668;2023-02-18T10:58:36;101109.66;;;15.68;54.29
29383;BME280;16365;51.598;7.668;2023-02-18T11:01:14;101120.84;;;15.68;53.94
29383;BME280;16365;51.598;7.668;2023-02-18T11:06:24;101121.22;;;15.67;54.25
29383;BME280;16365;51.598;7.668;2023-02-18T11:08:55;101113.38;;;15.73;54.14
29383;BME280;16365;51.598;7.668;2023-02-18T11:11:25;101116.19;;;15.73;53.97
29383;BME280;16365;51.598;7.668;2023-02-18T11:13:58;101115.72;;;15.71;54.19
29383;BME280;16365;51.598;7.668;2023-02-18T11:16:45;101114.09;;;15.70;54.58
29383;BME280;16365;51.598;7.668;2023-02-18T11:19:36;101120.03;;;15.68;54.75
29383;BME280;16365;51.598;7.668;2023-02-18T11:24:58;101118.88;;;15.69;54.77
29383;BME280;16365;51.598;7.668;2023-02-18T11:27:44;101110.03;;;15.67;54.43
29383;BME280;16365;51.598;7.668;2023-02-18T11:30:19;101114.44;;;15.68;54.40
29383;BME280;16365;51.598;7.668;2023-02-18T11:32:59;101105.59;;;15.66;54.70
29383;BME280;16365;51.598;7.668;2023-02-18T11:35:30;101111.16;;;15.66;54.26
29383;BME280;16365;51.598;7.668;2023-02-18T11:38:02;101114.34;;;15.64;54.14
29383;BME280;16365;51.598;7.668;2023-02-18T11:40:34;101109.41;;;15.61;54.38
29383;BME280;16365;51.598;7.668;2023-02-18T11:43:15;101104.06;;;15.56;54.91
29383;BME280;16365;51.598;7.668;2023-02-18T11:45:44;101108.16;;;15.59;54.38
29383;BME280;16365;51.598;7.668;2023-02-18T11:48:17;101104.06;;;15.56;54.63
29383;BME280;16365;51.598;7.668;2023-02-18T11:50:45;101104.06;;;15.56;54.68
29383;BME280;16365;51.598;7.668;2023-02-18T11:53:30;101105.59;;;15.54;54.95
29383;BME280;16365;51.598;7.668;2023-02-18T11:55:59;101123.16;;;15.54;54.92
29383;BME280;16365;51.598;7.668;2023-02-18T11:58:35;101112.34;;;15.53;54.88
29383;BME280;16365;51.598;7.668;2023-02-18T12:01:03;101112.44;;;15.56;54.66
29383;BME280;16365;51.598;7.668;2023-02-18T12:03:54;101121.19;;;15.55;55.33
29383;BME280;16365;51.598;7.668;2023-02-18T12:06:32;101114.44;;;15.56;54.79
29383;BME280;16365;51.598;7.668;2023-02-18T12:09:16;101109.66;;;15.56;54.75
29383;BME280;16365;51.598;7.668;2023-02-18T12:11:50;101112.81;;;15.55;55.09
29383;BME280;16365;51.598;7.668;2023-02-18T12:14:22;101110.38;;;15.53;55.19
29383;BME280;16365;51.598;7.668;2023-02-18T12:20:57;101103.50;;;15.51;55.38
29383;BME280;16365;51.598;7.668;2023-02-18T12:26:35;101102.91;;;15.57;55.08
29383;BME280;16365;51.598;7.668;2023-02-18T12:28:53;101109.19;;;15.54;55.17
29383;BME280;16365;51.598;7.668;2023-02-18T12:31:33;101107.91;;;15.52;55.60
29383;BME280;16365;51.598;7.668;2023-02-18T12:34:15;101117.13;;;15.52;55.48
29383;BME280;16365;51.598;7.668;2023-02-18T12:37:10;101105.94;;;15.52;55.57
29383;BME280;16365;51.598;7.668;2023-02-18T12:39:55;101109.06;;;15.51;55.21
29383;BME280;16365;51.598;7.668;2023-02-18T12:42:30;101130.63;;;15.50;55.42
29383;BME280;16365;51.598;7.668;2023-02-18T12:53:26;101110.50;;;15.45;55.37
29383;BME280;16365;51.598;7.668;2023-02-18T12:56:14;101124.09;;;15.46;55.55
29383;BME280;16365;51.598;7.668;2023-02-18T13:04:45;101117.34;;;15.47;55.16
29383;BME280;16365;51.598;7.668;2023-02-18T13:07:24;101104.53;;;15.46;55.45
29383;BME280;16365;51.598;7.668;2023-02-18T13:10:07;101111.75;;;15.47;55.48
29383;BME280;16365;51.598;7.668;2023-02-18T13:13:25;101125.84;;;15.51;55.44
29383;BME280;16365;51.598;7.668;2023-02-18T13:16:09;101121.19;;;15.55;55.72
29383;BME280;16365;51.598;7.668;2023-02-18T13:21:12;101113.84;;;15.62;55.17
29383;BME280;16365;51.598;7.668;2023-02-18T13:23:57;101123.88;;;15.63;55.66
29383;BME280;16365;51.598;7.668;2023-02-18T13:26:27;101122.03;;;15.67;55.08
29383;BME280;16365;51.598;7.668;2023-02-18T13:29:36;101123.66;;;15.68;55.62
29383;BME280;16365;51.598;7.668;2023-02-18T13:37:25;101099.16;;;15.78;55.11
29383;BME280;16365;51.598;7.668;2023-02-18T13:39:57;101094.03;;;15.80;55.50
29383;BME280;16365;51.598;7.668;2023-02-18T13:47:35;101104.16;;;15.84;55.71
29383;BME280;16365;51.598;7.668;2023-02-18T13:52:48;101103.88;;;15.89;55.02
29383;BME280;16365;51.598;7.668;2023-02-18T13:55:21;101098.66;;;15.88;55.30
29383;BME280;16365;51.598;7.668;2023-02-18T13:57:48;101107.06;;;15.88;54.83
29383;BME280;16365;51.598;7.668;2023-02-18T14:00:24;101106.13;;;15.84;55.54
29383;BME280;16365;51.598;7.668;2023-02-18T14:03:18;101104.50;;;15.83;55.75
29383;BME280;16365;51.598;7.668;2023-02-18T14:05:45;101097.28;;;15.82;55.31
29383;BME280;16365;51.598;7.668;2023-02-18T14:08:14;101112.41;;;15.81;55.24
29383;BME280;16365;51.598;7.668;2023-02-18T14:13:55;101115.47;;;15.76;55.58
29383;BME280;16365;51.598;7.668;2023-02-18T14:17:13;101111.41;;;15.73;55.94
29383;BME280;16365;51.598;7.668;2023-02-18T14:19:40;101106.25;;;15.75;55.23
29383;BME280;16365;51.598;7.668;2023-02-18T14:22:31;101114.91;;;15.70;56.12
29383;BME280;16365;51.598;7.668;2023-02-18T14:27:35;101120.50;;;15.70;55.93
29383;BME280;16365;51.598;7.668;2023-02-18T14:30:14;101120.16;;;15.72;56.10
29383;BME280;16365;51.598;7.668;2023-02-18T14:32:42;101122.22;;;15.75;55.54
29383;BME280;16365;51.598;7.668;2023-02-18T14:41:03;101120.16;;;15.72;56.20
29383;BME280;16365;51.598;7.668;2023-02-18T14:43:47;101115.72;;;15.71;55.94
29383;BME280;16365;51.598;7.668;2023-02-18T14:51:30;101125.38;;;15.73;56.29